HEBA/HBE METAR and TAF weather

Enter ICAO airport designator
Station Type Date Time Source
HEBA METAR 2022/01/25 04:00 UTC NOAA

HEBA 250400Z 18004KT CAVOK 03/01 Q1019 NOSIG


Station Type Date Time Source
HEBA Decoded METAR 2022/01/25 04:00 UTC NOAA

Alexandria Borg El Arab, Egypt (HEBA) 31-31N 030-10E
Jan 24, 2022 - 11:00 PM EST / 2022.01.25 0400 UTC
Wind: from the S (180 degrees) at 5 MPH (4 KT):0
Visibility: greater than 7 mile(s):0
Temperature: 37 F (3 C)
Dew Point: 33 F (1 C)
Relative Humidity: 86%
Pressure (altimeter): 30.09 in. Hg (1019 hPa)
ob: HEBA 250400Z 18004KT CAVOK 03/01 Q1019 NOSIG
cycle: 4

Station Type Date Time Source
HEBA TAF 2022/01/25 06:51 UTC NOAA

TAF HEBA 250500Z 2506/2612 28010G20KT 9999 SCT020 SCT022
TEMPO 2506/2524 6000 SHRA BKN020

Example: see airport list